Time;durP1;ratioP1;P1;durP2;ratioP2;P2;SDS_P1;SDS_P2;PMS_P1;PMS_P2;Temp;Humidity;BMP_temperature;BMP_pressure;BME280_temperature;BME280_humidity;BME280_pressure;Samples;Min_cycle;Max_cycle;Signal;HPM_P1;HPM_P2
2021/06/22 00:00:24;;;;;;;16.30;7.43;;;;;;;12.06;100.00;101265.72;5066000;28;20040;-79
2021/06/22 00:02:50;;;;;;;17.80;6.70;;;;;;;12.02;100.00;101256.47;5051055;28;20028;-80
2021/06/22 00:05:17;;;;;;;15.98;6.53;;;;;;;11.99;100.00;101243.59;5066630;28;20813;-78
2021/06/22 00:07:50;;;;;;;19.48;7.38;;;;;;;12.01;100.00;101246.09;5061156;28;20040;-80
2021/06/22 00:10:17;;;;;;;19.27;7.00;;;;;;;12.01;100.00;101252.16;5051270;28;20140;-77
2021/06/22 00:12:44;;;;;;;23.50;7.18;;;;;;;12.00;100.00;101260.22;5069069;28;20039;-80
2021/06/22 00:15:17;;;;;;;19.08;7.07;;;;;;;11.97;100.00;101276.28;5063715;28;20036;-80
2021/06/22 00:17:47;;;;;;;23.98;7.47;;;;;;;12.01;100.00;101272.38;5072767;28;20063;-79
2021/06/22 00:20:16;;;;;;;17.55;6.75;;;;;;;12.05;100.00;101281.63;5058686;28;20126;-79
2021/06/22 00:22:43;;;;;;;20.60;6.57;;;;;;;11.96;100.00;101291.22;5045402;28;20032;-81
2021/06/22 00:25:13;;;;;;;30.23;7.45;;;;;;;11.97;100.00;101305.19;5073291;28;20035;-79
2021/06/22 00:27:39;;;;;;;21.55;6.93;;;;;;;11.96;100.00;101309.63;5056402;28;20039;-81
2021/06/22 00:30:06;;;;;;;17.27;6.93;;;;;;;11.98;100.00;101305.06;5038840;28;20037;-80
2021/06/22 00:32:32;;;;;;;16.75;7.00;;;;;;;12.01;100.00;101299.50;5053745;28;20036;-77
2021/06/22 00:34:58;;;;;;;19.83;6.20;;;;;;;12.00;100.00;101297.03;5055750;28;20114;-80
2021/06/22 00:37:23;;;;;;;15.35;6.72;;;;;;;12.02;100.00;101306.44;5053257;28;20493;-76
2021/06/22 00:39:49;;;;;;;16.42;6.30;;;;;;;11.96;100.00;101308.78;5062063;28;20034;-76
2021/06/22 00:42:15;;;;;;;15.75;5.93;;;;;;;12.00;100.00;101308.38;5040147;28;20039;-80
2021/06/22 00:44:50;;;;;;;20.75;7.22;;;;;;;12.11;100.00;101327.56;5053773;28;20051;-79
2021/06/22 00:47:17;;;;;;;18.60;6.70;;;;;;;12.03;100.00;101310.69;5074118;28;20486;-79
2021/06/22 00:49:53;;;;;;;19.70;6.57;;;;;;;12.05;100.00;101326.34;5051350;28;20070;-78
2021/06/22 00:52:20;;;;;;;19.08;6.53;;;;;;;11.95;100.00;101329.00;5057433;28;20056;-79
2021/06/22 00:54:46;;;;;;;19.17;6.38;;;;;;;12.03;100.00;101323.03;5042143;28;20050;-79
2021/06/22 00:57:14;;;;;;;14.00;6.40;;;;;;;12.12;100.00;101322.19;5072254;28;20784;-77
2021/06/22 00:59:41;;;;;;;19.38;6.45;;;;;;;11.98;100.00;101305.06;5051395;28;20031;-80
2021/06/22 01:02:07;;;;;;;18.70;7.35;;;;;;;11.97;100.00;101310.44;5065010;28;20114;-80
2021/06/22 01:04:34;;;;;;;16.55;6.72;;;;;;;11.97;100.00;101302.56;5067716;28;20465;-78
2021/06/22 01:07:17;;;;;;;14.80;6.43;;;;;;;11.95;100.00;101305.34;5051281;28;20028;-80
2021/06/22 01:09:44;;;;;;;18.50;6.60;;;;;;;12.01;100.00;101310.00;5057158;28;20498;-79
2021/06/22 01:12:09;;;;;;;21.10;7.55;;;;;;;12.03;100.00;101313.31;5066388;28;20085;-77
2021/06/22 01:14:41;;;;;;;18.60;7.38;;;;;;;12.01;100.00;101317.91;5058673;28;20035;-79
2021/06/22 01:17:07;;;;;;;16.85;7.15;;;;;;;11.95;100.00;101307.13;5049075;28;20143;-80
2021/06/22 01:19:34;;;;;;;22.67;7.85;;;;;;;12.05;100.00;101316.66;5066790;28;20073;-80
2021/06/22 01:22:01;;;;;;;20.85;7.68;;;;;;;12.02;100.00;101309.06;5049928;28;20031;-80
2021/06/22 01:24:59;;;;;;;20.67;7.40;;;;;;;12.03;100.00;101302.81;5068307;28;20032;-78
2021/06/22 01:27:26;;;;;;;22.73;8.15;;;;;;;12.14;100.00;101319.41;5063699;28;20082;-80
2021/06/22 01:29:52;;;;;;;18.70;8.68;;;;;;;12.08;100.00;101319.00;5075116;28;20232;-78
2021/06/22 01:32:18;;;;;;;18.25;7.80;;;;;;;12.02;100.00;101308.22;5058528;28;20504;-78
2021/06/22 01:34:45;;;;;;;19.52;8.32;;;;;;;12.11;100.00;101319.69;5069219;28;20039;-78
2021/06/22 01:37:11;;;;;;;22.27;8.13;;;;;;;12.00;100.00;101291.78;5068512;28;20035;-79
2021/06/22 01:39:46;;;;;;;22.20;7.95;;;;;;;12.00;100.00;101303.13;5070643;28;20043;-79
2021/06/22 01:42:11;;;;;;;22.00;8.68;;;;;;;12.07;100.00;101298.94;5057682;28;20790;-77
2021/06/22 01:44:46;;;;;;;17.92;8.07;;;;;;;12.06;100.00;101301.72;5066258;28;20036;-78
2021/06/22 01:47:14;;;;;;;16.27;7.63;;;;;;;12.05;100.00;101300.91;5055333;28;20064;-79
2021/06/22 01:49:40;;;;;;;21.48;7.45;;;;;;;12.16;100.00;101302.50;5062932;28;20483;-77
2021/06/22 01:52:06;;;;;;;21.77;7.32;;;;;;;12.15;100.00;101313.16;5040585;28;20036;-79
2021/06/22 01:54:34;;;;;;;17.27;7.07;;;;;;;12.10;100.00;101318.88;5052170;28;20578;-79
2021/06/22 01:57:03;;;;;;;20.40;5.68;;;;;;;12.06;99.97;101307.78;5056722;28;20020;-79
2021/06/22 01:59:30;;;;;;;14.80;6.70;;;;;;;12.15;100.00;101326.31;5056484;28;20494;-79
2021/06/22 02:02:05;;;;;;;23.52;7.15;;;;;;;12.13;100.00;101333.50;5040034;28;20028;-78
2021/06/22 02:04:40;;;;;;;19.00;6.07;;;;;;;12.08;99.64;101340.03;5041369;28;20058;-78
2021/06/22 02:07:13;;;;;;;15.48;6.03;;;;;;;12.09;100.00;101354.00;5065093;28;20032;-79
2021/06/22 02:10:09;;;;;;;21.27;5.95;;;;;;;12.01;100.00;101362.59;5044702;28;20060;-76
2021/06/22 02:13:07;;;;;;;10.50;5.68;;;;;;;12.05;100.00;101371.88;5061679;28;20827;-77
2021/06/22 02:15:34;;;;;;;14.88;6.25;;;;;;;12.05;100.00;101374.53;5039221;28;20508;-78
2021/06/22 02:18:00;;;;;;;13.93;6.00;;;;;;;12.05;100.00;101371.88;5075515;28;20114;-76
2021/06/22 02:20:27;;;;;;;18.13;6.00;;;;;;;12.05;100.00;101368.41;5036038;28;20025;-77
2021/06/22 02:22:53;;;;;;;13.20;5.50;;;;;;;12.05;100.00;101371.88;5052225;28;20029;-78
2021/06/22 02:25:19;;;;;;;17.83;6.03;;;;;;;12.07;100.00;101383.09;5045278;28;20452;-77
2021/06/22 02:27:45;;;;;;;15.20;6.68;;;;;;;12.07;100.00;101374.34;5074960;28;20034;-78
2021/06/22 02:30:14;;;;;;;25.67;6.25;;;;;;;12.12;100.00;101379.22;5057878;28;20028;-77
2021/06/22 02:32:41;;;;;;;15.00;5.95;;;;;;;11.98;100.00;101375.19;5075448;28;20028;-78
2021/06/22 02:35:22;;;;;;;17.52;5.78;;;;;;;12.03;100.00;101373.81;5067523;28;20073;-78
2021/06/22 02:37:52;;;;;;;17.92;5.75;;;;;;;12.07;100.00;101387.50;5051061;28;20501;-76
2021/06/22 02:40:20;;;;;;;17.98;5.50;;;;;;;12.05;100.00;101382.41;5066007;28;20030;-79
2021/06/22 02:42:49;;;;;;;14.70;4.93;;;;;;;12.06;100.00;101373.53;5084040;28;20036;-78
2021/06/22 02:45:17;;;;;;;20.30;6.10;;;;;;;12.05;100.00;101377.16;5049295;28;20036;-77
2021/06/22 02:47:45;;;;;;;14.63;5.60;;;;;;;12.01;100.00;101354.72;5046694;28;20036;-78
2021/06/22 02:50:12;;;;;;;14.93;5.18;;;;;;;11.96;100.00;101359.59;5041269;28;20032;-77
2021/06/22 02:52:40;;;;;;;18.48;5.78;;;;;;;11.98;100.00;101351.53;5060991;28;20043;-77
2021/06/22 02:55:18;;;;;;;18.10;6.05;;;;;;;12.00;100.00;101347.00;5073361;28;20349;-79
2021/06/22 02:57:50;;;;;;;18.35;5.72;;;;;;;12.09;100.00;101351.38;5044129;28;20044;-78
2021/06/22 03:00:18;;;;;;;25.10;6.07;;;;;;;12.08;100.00;101352.34;5072858;28;20031;-76
2021/06/22 03:02:44;;;;;;;25.60;5.82;;;;;;;12.08;100.00;101342.66;5058412;28;20127;-77
2021/06/22 03:05:12;;;;;;;15.85;5.32;;;;;;;12.01;100.00;101331.03;5046618;28;20032;-78
2021/06/22 03:07:38;;;;;;;13.98;5.30;;;;;;;12.02;100.00;101337.16;5058683;28;20178;-79
2021/06/22 03:10:09;;;;;;;12.23;4.97;;;;;;;12.04;100.00;101348.34;5053159;28;20086;-78
2021/06/22 03:12:36;;;;;;;17.42;5.53;;;;;;;12.02;100.00;101360.81;5073179;28;20032;-77
2021/06/22 03:15:24;;;;;;;12.77;5.30;;;;;;;12.11;100.00;101372.28;5071008;28;20053;-77
2021/06/22 03:17:51;;;;;;;14.77;5.70;;;;;;;12.07;100.00;101387.50;5049492;28;20112;-77
2021/06/22 03:20:19;;;;;;;17.25;5.45;;;;;;;12.11;100.00;101395.94;5065398;28;20038;-78
2021/06/22 03:22:45;;;;;;;14.73;5.93;;;;;;;12.05;100.00;101402.59;5046333;28;20048;-77
2021/06/22 03:25:11;;;;;;;15.02;5.50;;;;;;;12.06;100.00;101399.00;5045964;28;20486;-75
2021/06/22 03:27:45;;;;;;;13.00;5.35;;;;;;;12.08;100.00;101415.47;5071011;28;20043;-78
2021/06/22 03:30:32;;;;;;;17.02;5.93;;;;;;;12.06;100.00;101409.53;5060778;28;20039;-77
2021/06/22 03:32:58;;;;;;;22.65;5.43;;;;;;;12.11;100.00;101403.81;5061485;28;20041;-77
2021/06/22 03:35:33;;;;;;;16.02;6.18;;;;;;;12.14;100.00;101414.06;5078043;28;20091;-77
2021/06/22 03:38:09;;;;;;;17.23;5.78;;;;;;;12.12;100.00;101439.69;5082946;28;20036;-78
2021/06/22 03:40:36;;;;;;;17.88;5.78;;;;;;;12.13;100.00;101454.47;5042941;28;20528;-78
2021/06/22 03:43:04;;;;;;;16.70;5.25;;;;;;;12.10;100.00;101460.84;5059722;28;20398;-76
2021/06/22 03:45:33;;;;;;;15.32;4.97;;;;;;;12.14;100.00;101450.91;5065328;28;20028;-77
2021/06/22 03:47:58;;;;;;;22.42;5.35;;;;;;;12.09;100.00;101469.69;5073239;28;20370;-77
2021/06/22 03:50:25;;;;;;;15.10;5.15;;;;;;;12.11;100.00;101465.16;5086250;28;20048;-75
2021/06/22 03:52:51;;;;;;;13.75;5.25;;;;;;;12.17;100.00;101454.06;5045784;28;20037;-77
2021/06/22 03:55:28;;;;;;;16.15;5.57;;;;;;;12.19;100.00;101438.16;5044027;28;20036;-77
2021/06/22 03:58:20;;;;;;;13.93;5.20;;;;;;;12.22;100.00;101425.56;5072662;28;20058;-76
2021/06/22 04:00:52;;;;;;;14.13;4.78;;;;;;;12.25;99.14;101416.56;5069590;28;20043;-78
2021/06/22 04:03:24;;;;;;;15.15;4.90;;;;;;;12.21;100.00;101418.63;5063275;28;20039;-78
2021/06/22 04:06:07;;;;;;;19.15;6.45;;;;;;;12.20;100.00;101403.81;5058865;28;20040;-79
2021/06/22 04:08:36;;;;;;;13.68;4.65;;;;;;;12.13;100.00;101391.38;5057359;28;20512;-76
2021/06/22 04:11:06;;;;;;;;;;;;;;;12.15;100.00;101403.41;5050138;28;20101;-76
2021/06/22 04:13:33;;;;;;;12.35;4.80;;;;;;;12.12;100.00;101400.25;5050708;28;19916;-77
2021/06/22 04:16:00;;;;;;;13.77;5.05;;;;;;;12.16;99.45;101404.25;5056039;28;20115;-77
2021/06/22 04:18:26;;;;;;;15.50;4.88;;;;;;;12.19;100.00;101412.69;5061845;28;20039;-75
2021/06/22 04:20:53;;;;;;;16.92;5.63;;;;;;;12.15;100.00;101411.31;5051529;28;20040;-77
2021/06/22 04:23:21;;;;;;;21.17;5.43;;;;;;;12.27;99.79;101415.44;5069257;28;20097;-78
2021/06/22 04:25:49;;;;;;;12.77;3.70;;;;;;;12.23;97.13;101410.59;5086138;28;20036;-77
2021/06/22 04:28:16;;;;;;;14.68;4.68;;;;;;;12.26;99.25;101407.69;5087019;28;20035;-77
2021/06/22 04:30:42;;;;;;;14.82;4.65;;;;;;;12.21;99.41;101407.28;5067416;28;20113;-77
2021/06/22 04:33:08;;;;;;;11.40;4.45;;;;;;;12.20;100.00;101395.91;5056252;28;20543;-77
2021/06/22 04:35:34;;;;;;;15.75;4.75;;;;;;;12.21;100.00;101394.97;5057213;28;20147;-77
2021/06/22 04:38:02;;;;;;;10.25;4.85;;;;;;;12.22;100.00;101394.00;5063098;28;20034;-78
2021/06/22 04:40:28;;;;;;;15.60;4.75;;;;;;;12.14;100.00;101401.75;5055650;28;20732;-77
2021/06/22 04:42:53;;;;;;;16.73;5.43;;;;;;;12.14;100.00;101393.03;5049832;28;20086;-79
2021/06/22 04:45:19;;;;;;;10.48;4.57;;;;;;;12.10;100.00;101403.00;5062421;28;20524;-78
2021/06/22 04:47:45;;;;;;;19.45;4.82;;;;;;;12.07;99.38;101401.50;5070691;28;20087;-77
2021/06/22 04:50:11;;;;;;;20.23;5.28;;;;;;;12.10;100.00;101412.69;5077455;28;20707;-78
2021/06/22 04:52:37;;;;;;;10.77;4.88;;;;;;;12.20;100.00;101405.63;5057714;28;20044;-76
2021/06/22 04:55:11;;;;;;;15.30;5.30;;;;;;;12.13;100.00;101402.75;5067359;28;20090;-76
2021/06/22 04:57:38;;;;;;;14.02;5.22;;;;;;;12.14;100.00;101396.50;5070220;28;20142;-75
2021/06/22 05:00:04;;;;;;;19.55;5.47;;;;;;;12.13;100.00;101383.47;5082099;28;20811;-76
2021/06/22 05:02:30;;;;;;;11.93;5.03;;;;;;;12.24;100.00;101392.06;5078520;28;20086;-77
2021/06/22 05:04:56;;;;;;;19.25;5.00;;;;;;;12.27;100.00;101394.38;5074983;28;20329;-76
2021/06/22 05:07:22;;;;;;;18.23;4.63;;;;;;;12.25;99.15;101398.97;5086107;28;20046;-76
2021/06/22 05:09:47;;;;;;;19.02;4.72;;;;;;;12.31;97.05;101402.00;5069640;28;20033;-76
2021/06/22 05:12:13;;;;;;;13.38;4.00;;;;;;;12.30;97.00;101405.59;5065514;28;20040;-77
2021/06/22 05:14:39;;;;;;;13.80;4.30;;;;;;;12.27;97.51;101412.81;5049676;28;20923;-77
2021/06/22 05:17:04;;;;;;;17.23;5.00;;;;;;;12.35;99.05;101425.25;5085317;28;20036;-76
2021/06/22 05:19:30;;;;;;;16.45;4.80;;;;;;;12.39;98.00;101425.78;5065766;28;20349;-78
2021/06/22 05:21:55;;;;;;;17.30;4.60;;;;;;;12.46;97.40;101432.97;5065552;28;20028;-76
2021/06/22 05:24:21;;;;;;;13.80;4.80;;;;;;;12.54;98.18;101444.59;5066719;28;20028;-75
2021/06/22 05:26:47;;;;;;;15.45;5.10;;;;;;;12.58;98.75;101443.34;5079445;28;20119;-77
2021/06/22 05:29:13;;;;;;;12.65;4.15;;;;;;;12.69;99.46;101450.25;5066092;28;20465;-78
2021/06/22 05:31:39;;;;;;;12.88;4.32;;;;;;;12.79;98.70;101445.75;5072913;28;20047;-79
2021/06/22 05:34:04;;;;;;;20.55;4.88;;;;;;;12.84;99.63;101452.25;5075155;28;20036;-77
2021/06/22 05:36:30;;;;;;;14.80;4.43;;;;;;;12.93;95.90;101445.31;5078471;28;20024;-78
2021/06/22 05:38:55;;;;;;;14.40;4.60;;;;;;;12.99;98.00;101454.44;5056771;28;20040;-77
2021/06/22 05:41:21;;;;;;;16.60;4.10;;;;;;;13.03;95.36;101447.91;5071391;28;20089;-76
2021/06/22 05:43:46;;;;;;;11.85;3.85;;;;;;;13.05;94.62;101456.47;5055654;28;20028;-76
2021/06/22 05:46:12;;;;;;;18.75;4.60;;;;;;;13.04;93.93;101452.19;5079135;28;20529;-77
2021/06/22 05:48:38;;;;;;;22.70;4.50;;;;;;;13.05;93.47;101457.31;5078270;28;20043;-77
2021/06/22 05:51:03;;;;;;;18.40;4.10;;;;;;;13.03;93.91;101461.06;5076053;28;20382;-79
2021/06/22 05:53:29;;;;;;;16.70;5.13;;;;;;;13.27;94.71;101462.34;5073286;28;20031;-78
2021/06/22 05:55:54;;;;;;;13.05;4.25;;;;;;;13.25;93.65;101465.94;5070079;28;20063;-78
2021/06/22 05:58:20;;;;;;;23.20;4.80;;;;;;;13.18;90.70;101462.25;5051902;28;20050;-77
2021/06/22 06:00:45;;;;;;;19.40;4.45;;;;;;;13.32;91.96;101465.41;5046068;28;20300;-78
2021/06/22 06:03:11;;;;;;;16.48;4.10;;;;;;;13.35;89.63;101467.75;5079013;28;20028;-76
2021/06/22 06:05:37;;;;;;;19.98;4.32;;;;;;;13.44;91.80;101465.06;5077740;28;20044;-79
2021/06/22 06:08:02;;;;;;;16.52;4.22;;;;;;;13.68;88.98;101468.13;5045306;28;20361;-79
2021/06/22 06:10:28;;;;;;;15.15;4.00;;;;;;;13.97;90.60;101486.34;5076324;28;20047;-78
2021/06/22 06:12:54;;;;;;;19.83;4.40;;;;;;;14.05;85.75;101481.13;5066266;28;20115;-78
2021/06/22 06:15:19;;;;;;;12.63;3.58;;;;;;;14.32;86.27;101484.69;5078637;28;20048;-79
2021/06/22 06:17:45;;;;;;;15.25;3.75;;;;;;;14.51;83.85;101484.50;5081805;28;20689;-77
2021/06/22 06:20:13;;;;;;;14.93;3.85;;;;;;;14.71;82.09;101479.03;5057814;28;20043;-78
2021/06/22 06:22:39;;;;;;;9.35;3.30;;;;;;;14.81;82.49;101486.88;5074510;28;20035;-78
2021/06/22 06:25:06;;;;;;;10.27;3.28;;;;;;;14.85;79.47;101477.66;5049382;28;20032;-78
2021/06/22 06:27:51;;;;;;;10.88;3.35;;;;;;;14.88;81.11;101482.59;5086193;28;20040;-77
2021/06/22 06:30:21;;;;;;;9.73;3.00;;;;;;;15.04;79.93;101493.25;5044982;28;20056;-76
2021/06/22 06:32:49;;;;;;;14.05;3.40;;;;;;;14.98;78.61;101496.53;5057807;28;20036;-78
2021/06/22 06:35:16;;;;;;;12.48;3.08;;;;;;;15.04;78.68;101495.91;5082808;28;20032;-77
2021/06/22 06:37:42;;;;;;;14.10;3.03;;;;;;;15.10;77.59;101497.91;5074894;28;20087;-79
2021/06/22 06:40:09;;;;;;;11.63;3.08;;;;;;;15.10;80.33;101505.84;5056086;28;20055;-78
2021/06/22 06:42:35;;;;;;;12.88;3.38;;;;;;;14.85;80.75;101504.06;5057178;28;20036;-79
2021/06/22 06:45:00;;;;;;;12.30;2.80;;;;;;;14.77;75.98;101513.59;5050530;28;20213;-80
2021/06/22 06:47:26;;;;;;;11.63;3.13;;;;;;;14.69;76.85;101499.50;5046734;28;20028;-78
2021/06/22 06:49:51;;;;;;;14.48;2.80;;;;;;;14.63;77.39;101516.78;5064285;28;20425;-77
2021/06/22 06:52:17;;;;;;;15.18;2.85;;;;;;;14.59;78.30;101520.72;5083731;28;20032;-78
2021/06/22 06:54:42;;;;;;;11.00;3.20;;;;;;;14.51;80.21;101525.91;5051078;28;20040;-76
2021/06/22 06:57:09;;;;;;;13.75;3.60;;;;;;;14.53;78.43;101530.03;5053772;28;20033;-79
2021/06/22 06:59:35;;;;;;;9.20;3.03;;;;;;;14.46;79.89;101528.16;5058335;28;20104;-78
2021/06/22 07:02:00;;;;;;;8.45;3.05;;;;;;;14.38;81.07;101534.22;5083275;28;20112;-79
2021/06/22 07:04:26;;;;;;;9.95;3.05;;;;;;;14.21;81.66;101535.88;5050098;28;20389;-77
2021/06/22 07:06:51;;;;;;;11.05;2.72;;;;;;;14.18;80.52;101526.47;5078910;28;20064;-78
2021/06/22 07:09:17;;;;;;;8.40;3.20;;;;;;;14.20;80.07;101531.56;5082354;28;20058;-79
2021/06/22 07:11:43;;;;;;;9.00;2.67;;;;;;;14.25;78.84;101539.03;5046186;28;20036;-78
2021/06/22 07:14:08;;;;;;;13.38;3.00;;;;;;;14.28;76.29;101526.38;5070140;28;20024;-78
2021/06/22 07:16:35;;;;;;;16.35;2.92;;;;;;;14.49;78.98;101533.97;5046891;28;20044;-77
2021/06/22 07:19:00;;;;;;;6.60;2.53;;;;;;;14.64;77.81;101529.00;5059023;28;20478;-78
2021/06/22 07:21:26;;;;;;;9.55;2.67;;;;;;;14.82;79.23;101534.22;5047373;28;20086;-77
2021/06/22 07:23:52;;;;;;;12.63;3.38;;;;;;;14.81;79.12;101539.69;5075693;28;20090;-77
2021/06/22 07:26:18;;;;;;;13.77;2.95;;;;;;;14.91;74.74;101549.16;5051103;28;20461;-80
2021/06/22 07:28:44;;;;;;;10.95;3.20;;;;;;;15.10;78.05;101532.25;5067601;28;20123;-78
2021/06/22 07:31:11;;;;;;;12.25;2.90;;;;;;;15.25;77.10;101526.41;5079955;28;20123;-78
2021/06/22 07:33:37;;;;;;;10.82;2.85;;;;;;;15.38;78.39;101540.00;5071005;28;20075;-78
2021/06/22 07:36:03;;;;;;;12.38;2.70;;;;;;;15.43;78.10;101550.94;5065848;28;20063;-77
2021/06/22 07:38:29;;;;;;;11.43;3.13;;;;;;;15.41;77.05;101550.25;5087485;28;20527;-78
2021/06/22 07:40:54;;;;;;;12.38;3.05;;;;;;;15.35;73.25;101537.66;5087010;28;20032;-78
2021/06/22 07:43:20;;;;;;;8.85;2.80;;;;;;;15.21;76.51;101530.34;5045862;28;20039;-78
2021/06/22 07:45:45;;;;;;;11.73;2.88;;;;;;;15.25;80.15;101548.34;5061912;28;20036;-78
2021/06/22 07:48:11;;;;;;;11.55;3.22;;;;;;;15.48;78.98;101547.78;5074894;28;20044;-77
2021/06/22 07:50:37;;;;;;;12.95;3.38;;;;;;;15.98;73.83;101551.47;5071498;28;20101;-78
2021/06/22 07:53:04;;;;;;;11.77;3.00;;;;;;;16.20;71.12;101555.28;5067365;28;20033;-78
2021/06/22 07:55:30;;;;;;;14.60;2.95;;;;;;;16.55;68.89;101549.69;5051955;28;20089;-78
2021/06/22 07:57:56;;;;;;;11.10;3.10;;;;;;;16.51;70.62;101544.88;5069005;28;20567;-77
2021/06/22 08:03:05;;;;;;;11.35;2.78;;;;;;;15.96;72.55;101552.44;5068887;28;20044;-78
2021/06/22 08:05:30;;;;;;;4.70;2.13;;;;;;;15.88;72.12;101556.88;5046230;28;20035;-77
2021/06/22 08:07:56;;;;;;;6.55;2.72;;;;;;;15.92;74.00;101561.69;5084145;28;20848;-77
2021/06/22 08:10:21;;;;;;;11.68;2.72;;;;;;;16.30;70.63;101559.44;5055702;28;20036;-77
2021/06/22 08:12:47;;;;;;;13.50;2.83;;;;;;;16.81;69.33;101556.63;5063038;28;20127;-77
2021/06/22 08:15:13;;;;;;;11.63;2.80;;;;;;;17.48;68.67;101556.31;5062368;28;20028;-77
2021/06/22 08:17:39;;;;;;;11.75;2.50;;;;;;;17.76;70.31;101553.19;5072516;28;20439;-79
2021/06/22 08:20:05;;;;;;;10.18;2.70;;;;;;;17.91;68.04;101563.91;5073798;28;20028;-76
2021/06/22 08:22:30;;;;;;;11.05;2.70;;;;;;;18.13;65.86;101564.13;5060788;28;20039;-77
2021/06/22 08:24:56;;;;;;;7.45;2.00;;;;;;;18.43;65.49;101563.22;5085641;28;20272;-79
2021/06/22 08:27:22;;;;;;;11.68;2.53;;;;;;;18.62;62.92;101561.91;5047375;28;20717;-79
2021/06/22 08:29:47;;;;;;;9.10;2.70;;;;;;;18.58;59.76;101555.28;5080705;28;20084;-77
2021/06/22 08:32:13;;;;;;;10.73;2.97;;;;;;;18.46;61.69;101565.53;5084986;28;20040;-78
2021/06/22 08:34:38;;;;;;;9.52;2.40;;;;;;;17.55;61.46;101560.91;5060724;28;20036;-77
2021/06/22 08:37:04;;;;;;;5.95;2.30;;;;;;;17.27;63.93;101556.03;5062296;28;20036;-77
2021/06/22 08:39:29;;;;;;;11.00;2.70;;;;;;;17.28;66.24;101566.47;5077808;28;20114;-77
2021/06/22 08:41:55;;;;;;;10.48;2.75;;;;;;;17.02;65.33;101561.41;5048954;28;20036;-78
2021/06/22 08:44:24;;;;;;;12.35;3.08;;;;;;;16.87;66.64;101574.50;5038665;28;20147;-77
2021/06/22 08:46:50;;;;;;;7.45;2.58;;;;;;;16.72;68.11;101576.16;5079059;28;20032;-77
2021/06/22 08:49:16;;;;;;;14.05;3.60;;;;;;;16.36;69.08;101563.25;5077543;28;20033;-77
2021/06/22 08:51:42;;;;;;;7.55;2.63;;;;;;;16.30;69.36;101570.03;5050726;28;20036;-77
2021/06/22 08:54:22;;;;;;;12.82;3.35;;;;;;;16.08;71.87;101557.44;5068277;28;20509;-77
2021/06/22 08:56:47;;;;;;;9.48;3.22;;;;;;;16.08;71.25;101560.06;5084547;28;20028;-77
2021/06/22 08:59:13;;;;;;;11.25;3.28;;;;;;;16.05;72.38;101561.25;5060989;28;20024;-76
2021/06/22 09:01:38;;;;;;;4.95;2.58;;;;;;;16.11;75.86;101575.63;5070810;28;20035;-80
2021/06/22 09:04:04;;;;;;;11.40;3.20;;;;;;;16.24;78.22;101570.69;5084723;28;20165;-77
2021/06/22 09:06:43;;;;;;;10.68;3.17;;;;;;;16.57;74.17;101572.53;5043847;28;20033;-77
2021/06/22 09:09:10;;;;;;;7.85;2.65;;;;;;;16.67;68.36;101574.03;5047605;28;20077;-77
2021/06/22 09:11:36;;;;;;;14.77;3.03;;;;;;;17.06;67.68;101575.16;5065005;28;20698;-76
2021/06/22 09:14:05;;;;;;;10.68;2.45;;;;;;;17.22;67.73;101569.00;5066293;28;20044;-77
2021/06/22 09:16:32;;;;;;;7.18;2.60;;;;;;;17.32;63.83;101561.66;5060084;28;20814;-76
2021/06/22 09:19:24;;;;;;;12.02;2.92;;;;;;;17.83;62.99;101569.25;5050700;28;20040;-77
2021/06/22 09:21:49;;;;;;;11.23;2.60;;;;;;;18.22;65.89;101568.38;5072400;28;20052;-77
2021/06/22 09:24:20;;;;;;;7.57;2.75;;;;;;;18.48;63.10;101568.00;5065787;28;20024;-77
2021/06/22 09:26:49;;;;;;;11.55;2.30;;;;;;;18.55;61.02;101573.41;5072742;28;20662;-79
2021/06/22 09:29:17;;;;;;;11.05;2.53;;;;;;;18.56;60.40;101567.94;5082013;28;20036;-80
2021/06/22 09:31:56;;;;;;;9.73;2.92;;;;;;;18.62;60.94;101577.84;5072116;28;20033;-77
2021/06/22 09:34:24;;;;;;;10.15;3.00;;;;;;;18.40;60.16;101570.72;5051884;28;20110;-77
2021/06/22 09:36:56;;;;;;;5.63;2.75;;;;;;;18.42;58.51;101561.59;5065618;28;20039;-77
2021/06/22 09:39:24;;;;;;;10.68;2.83;;;;;;;18.28;58.69;101567.66;5068601;28;20492;-76
2021/06/22 09:41:51;;;;;;;10.90;2.50;;;;;;;18.17;62.44;101568.06;5085716;28;20035;-77
2021/06/22 09:44:22;;;;;;;9.75;2.05;;;;;;;18.11;58.67;101571.44;5072775;28;20753;-79
2021/06/22 09:46:51;;;;;;;7.82;2.45;;;;;;;18.18;64.44;101567.06;5074702;28;20043;-79
2021/06/22 09:49:21;;;;;;;8.40;2.20;;;;;;;18.22;62.20;101569.19;5049881;28;20119;-79
2021/06/22 09:52:01;;;;;;;14.43;3.35;;;;;;;18.21;62.17;101567.53;5067854;28;20059;-77
2021/06/22 09:54:32;;;;;;;7.03;2.88;;;;;;;18.42;70.56;101571.34;5054846;28;20032;-77
2021/06/22 09:57:01;;;;;;;11.80;2.70;;;;;;;18.72;60.94;101568.78;5087207;28;20043;-78
2021/06/22 09:59:29;;;;;;;12.70;2.70;;;;;;;18.71;64.50;101578.59;5051159;28;20042;-75
2021/06/22 10:02:07;;;;;;;10.52;2.63;;;;;;;18.81;66.56;101579.19;5054190;28;20036;-79
2021/06/22 10:04:33;;;;;;;9.15;2.28;;;;;;;18.71;59.81;101572.47;5078022;28;20035;-78
2021/06/22 10:06:59;;;;;;;9.48;2.35;;;;;;;18.82;59.54;101572.06;5051320;28;20039;-77
2021/06/22 10:09:30;;;;;;;8.38;2.63;;;;;;;19.20;62.68;101564.84;5050850;28;20474;-77
2021/06/22 10:12:05;;;;;;;10.20;2.13;;;;;;;19.25;57.94;101570.44;5058890;28;20492;-77
2021/06/22 10:14:42;;;;;;;9.35;2.38;;;;;;;19.65;62.59;101570.13;5076893;28;20043;-77
2021/06/22 10:17:20;;;;;;;9.48;2.65;;;;;;;19.79;54.72;101576.47;5061318;28;20036;-74
2021/06/22 10:19:52;;;;;;;11.27;2.42;;;;;;;19.88;53.85;101569.19;5062529;28;20109;-76
2021/06/22 10:22:21;;;;;;;9.23;2.20;;;;;;;20.40;53.99;101574.22;5054116;28;20039;-76
2021/06/22 10:24:47;;;;;;;7.80;2.08;;;;;;;20.68;56.96;101575.28;5063277;28;20027;-77
2021/06/22 10:27:15;;;;;;;9.95;2.33;;;;;;;20.32;55.79;101576.19;5050121;28;20048;-77
2021/06/22 10:29:42;;;;;;;13.02;2.45;;;;;;;20.47;57.28;101586.78;5053668;28;20038;-76
2021/06/22 10:32:08;;;;;;;13.90;2.35;;;;;;;20.47;55.94;101586.78;5035517;28;20040;-78
2021/06/22 10:34:36;;;;;;;7.47;2.08;;;;;;;20.64;57.35;101596.16;5040735;28;20047;-78
2021/06/22 10:37:23;;;;;;;7.15;2.22;;;;;;;20.73;55.81;101595.00;5061374;28;20040;-76
2021/06/22 10:39:59;;;;;;;9.95;2.50;;;;;;;20.65;58.76;101599.69;5070697;28;20032;-78
2021/06/22 10:42:36;;;;;;;11.73;2.80;;;;;;;20.80;53.75;101598.56;5040687;28;20047;-76
2021/06/22 10:45:03;;;;;;;12.43;2.75;;;;;;;21.09;54.57;101595.88;5031400;28;20457;-80
2021/06/22 10:47:33;;;;;;;5.88;2.10;;;;;;;20.64;52.26;101601.50;5067649;28;20046;-76
2021/06/22 10:50:19;;;;;;;10.43;2.85;;;;;;;20.45;57.74;101581.63;5050350;28;20033;-77
2021/06/22 10:52:49;;;;;;;8.90;2.67;;;;;;;20.02;59.61;101586.94;5074766;28;20067;-76
2021/06/22 10:55:22;;;;;;;13.18;3.25;;;;;;;19.89;55.59;101600.13;5072772;28;20035;-75
2021/06/22 10:58:07;;;;;;;10.38;2.83;;;;;;;19.95;54.86;101608.19;5071138;28;20089;-77
2021/06/22 11:00:38;;;;;;;10.90;2.80;;;;;;;20.28;55.50;101609.56;5050919;28;20031;-76
2021/06/22 11:03:06;;;;;;;16.02;2.60;;;;;;;20.34;52.95;101590.97;5065754;28;20067;-75
2021/06/22 11:05:34;;;;;;;8.60;2.55;;;;;;;20.94;56.00;101599.47;5065210;28;20024;-77
2021/06/22 11:08:12;;;;;;;13.98;2.92;;;;;;;21.34;52.13;101596.22;5060746;28;20539;-77
2021/06/22 11:10:39;;;;;;;13.50;2.47;;;;;;;20.61;56.83;101600.06;5063808;28;20055;-76
2021/06/22 11:13:07;;;;;;;13.13;2.55;;;;;;;19.91;55.69;101590.09;5046200;28;20044;-76
2021/06/22 11:15:45;;;;;;;9.05;2.50;;;;;;;19.64;58.09;101593.22;5074828;28;20036;-76
2021/06/22 11:18:15;;;;;;;10.30;2.88;;;;;;;19.71;54.55;101603.16;5060787;28;20032;-77
2021/06/22 11:20:45;;;;;;;12.30;2.70;;;;;;;19.76;55.49;101595.44;5065869;28;20025;-75
2021/06/22 11:23:13;;;;;;;9.63;2.42;;;;;;;19.72;54.99;101596.81;5051965;28;20041;-78